Time;durP1;ratioP1;P1;durP2;ratioP2;P2;SDS_P1;SDS_P2;PMS_P1;PMS_P2;Temp;Humidity;BMP_temperature;BMP_pressure;BME280_temperature;BME280_humidity;BME280_pressure;Samples;Min_cycle;Max_cycle;Signal;HPM_P1;HPM_P2
2023/05/31 00:01:16;;;;;;;9.70;6.43;;;486.60;2380.80;;;;;;5069295;28;20464;-80
2023/05/31 00:03:43;;;;;;;8.27;5.68;;;486.50;2380.80;;;;;;5053624;28;20461;-82
2023/05/31 00:06:10;;;;;;;6.63;5.30;;;486.50;2380.80;;;;;;5069508;28;20045;-81
2023/05/31 00:08:36;;;;;;;7.82;4.72;;;486.60;2380.80;;;;;;5055229;28;20372;-82
2023/05/31 00:11:02;;;;;;;8.27;5.28;;;486.50;2380.80;;;;;;5073099;28;20029;-81
2023/05/31 00:13:28;;;;;;;8.63;4.90;;;486.60;2380.80;;;;;;5072599;28;20530;-82
2023/05/31 00:15:53;;;;;;;11.93;5.57;;;486.50;2380.80;;;;;;5068139;28;20021;-83
2023/05/31 00:18:19;;;;;;;8.88;5.25;;;486.40;2380.80;;;;;;5035352;28;20492;-82
2023/05/31 00:20:45;;;;;;;9.02;5.20;;;486.50;2380.80;;;;;;5035731;28;20031;-83
2023/05/31 00:23:11;;;;;;;9.50;4.57;;;486.40;2380.80;;;;;;5036114;28;20026;-83
2023/05/31 00:25:37;;;;;;;8.65;4.60;;;461.70;2380.80;;;;;;5036096;28;20021;-82
2023/05/31 00:28:03;;;;;;;6.10;4.50;;;461.70;2380.80;;;;;;5036841;28;20416;-83
2023/05/31 00:30:28;;;;;;;8.95;5.85;;;461.70;2380.80;;;;;;5035889;28;20374;-83
2023/05/31 00:32:54;;;;;;;7.97;5.57;;;461.70;2380.80;;;;;;5035779;28;20071;-82
2023/05/31 00:35:20;;;;;;;6.88;4.97;;;461.70;2380.80;;;;;;5035507;28;20389;-83
2023/05/31 00:37:46;;;;;;;6.45;4.07;;;486.40;2380.80;;;;;;5035903;28;20033;-83
2023/05/31 00:40:12;;;;;;;5.60;3.67;;;461.50;2380.80;;;;;;5037129;28;20034;-83
2023/05/31 00:42:38;;;;;;;6.63;3.70;;;461.30;2380.80;;;;;;5035493;28;20135;-83
2023/05/31 00:45:06;;;;;;;6.00;3.95;;;461.50;2380.80;;;;;;5037234;28;20139;-83
2023/05/31 00:47:32;;;;;;;6.60;3.78;;;461.40;2380.80;;;;;;5035421;28;20026;-83
2023/05/31 00:49:58;;;;;;;5.78;3.70;;;461.50;2380.80;;;;;;5035398;28;20036;-83
2023/05/31 00:52:25;;;;;;;9.23;4.30;;;461.40;2380.80;;;;;;5036033;28;20116;-83
2023/05/31 00:54:51;;;;;;;11.23;4.75;;;461.40;2380.80;;;;;;5035307;28;20113;-83
2023/05/31 00:57:17;;;;;;;7.97;4.80;;;461.30;2380.80;;;;;;5035586;28;20124;-83
2023/05/31 00:59:43;;;;;;;10.63;5.18;;;461.20;2380.80;;;;;;5035404;28;20076;-83
2023/05/31 01:02:11;;;;;;;6.25;4.35;;;461.20;2380.80;;;;;;5035008;28;20025;-83
2023/05/31 01:04:37;;;;;;;8.00;5.25;;;461.20;2380.80;;;;;;5050532;28;20053;-82
2023/05/31 01:07:03;;;;;;;7.28;5.28;;;461.20;2380.80;;;;;;5042039;28;20500;-83
2023/05/31 01:09:30;;;;;;;6.22;4.78;;;461.20;2380.80;;;;;;5034684;28;20037;-83
2023/05/31 01:12:02;;;;;;;9.40;5.15;;;461.30;2380.80;;;;;;5035014;28;20022;-83
2023/05/31 01:14:55;;;;;;;6.87;4.93;;;461.40;2380.80;;;;;;5035017;28;20387;-83
2023/05/31 01:17:34;;;;;;;8.88;4.90;;;461.20;2380.80;;;;;;5034729;28;20029;-83
2023/05/31 01:20:09;;;;;;;7.88;4.80;;;461.20;2380.80;;;;;;5034969;28;20032;-83
2023/05/31 01:23:11;;;;;;;7.93;3.97;;;461.20;2380.80;;;;;;5034586;28;20040;-83
2023/05/31 01:25:55;;;;;;;6.20;4.50;;;461.20;2380.80;;;;;;5036494;28;20079;-82
2023/05/31 01:28:23;;;;;;;9.55;4.45;;;461.10;2380.80;;;;;;5034831;28;20045;-81
2023/05/31 01:30:50;;;;;;;7.50;3.92;;;461.00;2380.80;;;;;;5034540;28;20037;-82
2023/05/31 01:33:17;;;;;;;7.70;4.55;;;461.20;2380.80;;;;;;5034780;28;20524;-82
2023/05/31 01:35:43;;;;;;;13.35;4.18;;;461.20;2380.80;;;;;;5034404;28;20029;-82
2023/05/31 01:38:09;;;;;;;7.57;4.45;;;461.20;2380.80;;;;;;5034513;28;20397;-82
2023/05/31 01:40:35;;;;;;;7.97;3.78;;;461.00;2380.80;;;;;;5035527;28;20473;-82
2023/05/31 01:43:04;;;;;;;6.65;4.63;;;461.10;2380.80;;;;;;5034597;28;20124;-82
2023/05/31 01:45:31;;;;;;;10.05;4.25;;;461.00;2380.80;;;;;;5034168;28;20029;-82
2023/05/31 01:48:02;;;;;;;6.53;3.92;;;461.00;2380.80;;;;;;5034412;28;20029;-82
2023/05/31 01:50:28;;;;;;;5.50;3.83;;;461.00;2380.80;;;;;;5034500;28;20082;-82
2023/05/31 01:52:54;;;;;;;9.80;4.57;;;461.00;2380.80;;;;;;5034051;28;20032;-82
2023/05/31 01:55:20;;;;;;;8.75;5.20;;;460.90;2380.80;;;;;;5035395;28;20411;-82
2023/05/31 01:57:46;;;;;;;12.13;5.32;;;436.10;2355.20;;;;;;5035165;28;20037;-82
2023/05/31 02:00:14;;;;;;;8.73;5.03;;;436.10;2355.20;;;;;;5034124;28;20026;-82
2023/05/31 02:02:44;;;;;;;12.38;5.22;;;436.10;2355.20;;;;;;5034148;28;20481;-83
2023/05/31 02:05:12;;;;;;;10.63;4.72;;;436.00;2355.20;;;;;;5033570;28;20056;-82
2023/05/31 02:07:42;;;;;;;6.60;4.40;;;435.90;2355.20;;;;;;5034036;28;20029;-82
2023/05/31 02:10:09;;;;;;;8.95;4.93;;;435.90;2355.20;;;;;;5034080;28;20032;-82
2023/05/31 02:12:35;;;;;;;10.57;5.72;;;435.90;2355.20;;;;;;5035008;28;20025;-82
2023/05/31 02:15:01;;;;;;;12.07;7.82;;;436.00;2355.20;;;;;;5034122;28;20500;-82
2023/05/31 02:17:28;;;;;;;12.98;7.88;;;436.10;2355.20;;;;;;5034172;28;20033;-82
2023/05/31 02:19:55;;;;;;;13.63;8.98;;;460.80;2380.80;;;;;;5033556;28;20029;-83
2023/05/31 02:22:21;;;;;;;9.07;6.80;;;436.10;2355.20;;;;;;5033862;28;20037;-82
2023/05/31 02:24:47;;;;;;;11.98;8.10;;;460.90;2380.80;;;;;;5033847;28;20381;-82
2023/05/31 02:27:14;;;;;;;10.80;6.72;;;460.90;2380.80;;;;;;5034426;28;20029;-82
2023/05/31 02:29:40;;;;;;;11.15;6.00;;;460.80;2380.80;;;;;;5034872;28;20095;-83
2023/05/31 02:32:06;;;;;;;8.82;5.20;;;460.80;2380.80;;;;;;5034503;28;20453;-82
2023/05/31 02:34:33;;;;;;;9.07;6.57;;;460.80;2380.80;;;;;;5033524;28;20025;-82
2023/05/31 02:37:00;;;;;;;7.03;5.82;;;436.10;2355.20;;;;;;5034896;28;20108;-82
2023/05/31 02:39:26;;;;;;;7.43;5.50;;;436.10;2355.20;;;;;;5045559;28;20043;-82
2023/05/31 02:41:52;;;;;;;9.55;5.47;;;436.10;2355.20;;;;;;5069672;28;20377;-82
2023/05/31 02:44:17;;;;;;;8.20;4.93;;;436.10;2355.20;;;;;;5069977;28;20021;-82
2023/05/31 02:46:43;;;;;;;6.55;5.65;;;460.80;2380.80;;;;;;5059417;28;20484;-81
2023/05/31 02:49:09;;;;;;;9.75;5.47;;;460.80;2380.80;;;;;;5040077;28;20040;-83
2023/05/31 02:51:35;;;;;;;8.68;5.07;;;460.90;2380.80;;;;;;5069583;28;20048;-82
2023/05/31 02:54:01;;;;;;;9.63;5.85;;;460.90;2380.80;;;;;;5069597;28;20068;-82
2023/05/31 02:56:27;;;;;;;9.38;5.82;;;460.80;2380.80;;;;;;5054453;28;20079;-82
2023/05/31 02:58:53;;;;;;;7.00;5.78;;;436.10;2355.20;;;;;;5069825;28;20079;-82
2023/05/31 03:01:18;;;;;;;8.18;6.05;;;460.80;2380.80;;;;;;5069533;28;20465;-82
2023/05/31 03:03:44;;;;;;;9.90;5.95;;;460.80;2380.80;;;;;;5069823;28;20457;-83
2023/05/31 03:06:11;;;;;;;9.15;6.30;;;436.10;2355.20;;;;;;5069497;28;20282;-83
2023/05/31 03:08:37;;;;;;;9.52;6.00;;;435.80;2355.20;;;;;;5069418;28;20044;-83
2023/05/31 03:11:04;;;;;;;9.02;5.65;;;435.60;2355.20;;;;;;5069527;28;20443;-83
2023/05/31 03:13:30;;;;;;;11.73;6.75;;;435.80;2355.20;;;;;;5053788;28;20100;-83
2023/05/31 03:15:56;;;;;;;8.07;6.57;;;435.90;2355.20;;;;;;5069583;28;20361;-82
2023/05/31 03:18:21;;;;;;;9.05;6.63;;;435.90;2355.20;;;;;;5054197;28;20415;-83
2023/05/31 03:20:47;;;;;;;9.68;7.03;;;435.90;2355.20;;;;;;5069451;28;20053;-82
2023/05/31 03:23:13;;;;;;;9.60;7.40;;;436.00;2355.20;;;;;;5068291;28;20091;-83
2023/05/31 03:25:39;;;;;;;14.48;8.65;;;436.00;2355.20;;;;;;5052903;28;20071;-83
2023/05/31 03:28:05;;;;;;;11.57;7.43;;;436.10;2355.20;;;;;;5052740;28;20067;-82
2023/05/31 03:30:30;;;;;;;13.55;7.88;;;436.10;2355.20;;;;;;5052501;28;20028;-82
2023/05/31 03:32:56;;;;;;;10.93;7.82;;;436.10;2355.20;;;;;;5053641;28;20032;-82
2023/05/31 03:35:22;;;;;;;10.35;8.02;;;435.90;2355.20;;;;;;5052521;28;20478;-82
2023/05/31 03:37:48;;;;;;;11.10;7.50;;;435.90;2355.20;;;;;;5052392;28;20024;-82
2023/05/31 03:40:13;;;;;;;11.63;8.00;;;435.90;2355.20;;;;;;5052495;28;20029;-83
2023/05/31 03:42:39;;;;;;;11.43;8.80;;;435.80;2355.20;;;;;;5053179;28;20033;-83
2023/05/31 03:45:06;;;;;;;12.43;9.27;;;435.60;2355.20;;;;;;5053774;28;20490;-83
2023/05/31 03:47:31;;;;;;;12.55;8.93;;;435.60;2355.20;;;;;;5052459;28;20021;-83
2023/05/31 03:49:57;;;;;;;15.45;8.82;;;435.80;2355.20;;;;;;5052052;28;20572;-83
2023/05/31 03:52:23;;;;;;;10.20;7.82;;;435.80;2355.20;;;;;;5052424;28;20453;-83
2023/05/31 03:54:49;;;;;;;11.27;8.90;;;435.90;2355.20;;;;;;5052185;28;20399;-83
2023/05/31 03:57:15;;;;;;;14.68;8.65;;;435.90;2355.20;;;;;;5052440;28;20028;-83
2023/05/31 03:59:40;;;;;;;12.23;8.95;;;435.80;2355.20;;;;;;5054046;28;20037;-83
2023/05/31 04:02:06;;;;;;;16.20;10.20;;;435.90;2355.20;;;;;;5052433;28;20033;-82
2023/05/31 04:04:32;;;;;;;15.52;8.98;;;435.80;2355.20;;;;;;5052933;28;20045;-81
2023/05/31 04:06:58;;;;;;;16.60;8.77;;;435.60;2355.20;;;;;;5053449;28;20033;-82
2023/05/31 04:09:24;;;;;;;14.80;9.77;;;435.50;1996.80;;;;;;5053492;28;20068;-81
2023/05/31 04:11:50;;;;;;;11.80;8.25;;;435.50;2355.20;;;;;;5053674;28;20095;-81
2023/05/31 04:14:15;;;;;;;11.30;8.35;;;435.60;2355.20;;;;;;5052484;28;20029;-81
2023/05/31 04:16:41;;;;;;;18.75;11.02;;;435.80;2355.20;;;;;;5052238;28;20478;-82
2023/05/31 04:19:08;;;;;;;13.27;9.32;;;435.90;2355.20;;;;;;5052036;28;20055;-82
2023/05/31 04:21:35;;;;;;;12.95;8.77;;;435.90;2355.20;;;;;;5052490;28;20025;-82
2023/05/31 04:24:01;;;;;;;14.15;9.18;;;435.90;2355.20;;;;;;5052304;28;20225;-82
2023/05/31 04:26:28;;;;;;;11.38;8.93;;;435.80;2355.20;;;;;;5052242;28;20028;-82
2023/05/31 04:28:54;;;;;;;12.20;9.02;;;435.90;2355.20;;;;;;5052016;28;20599;-81
2023/05/31 04:31:24;;;;;;;12.73;8.40;;;436.10;2355.20;;;;;;5052223;28;20061;-82
2023/05/31 04:33:53;;;;;;;13.43;10.00;;;436.10;2355.20;;;;;;5053393;28;20396;-83
2023/05/31 04:36:20;;;;;;;12.45;9.60;;;460.90;2380.80;;;;;;5053407;28;20354;-82
2023/05/31 04:38:47;;;;;;;14.40;10.70;;;460.80;2380.80;;;;;;5051991;28;20053;-82
2023/05/31 04:41:15;;;;;;;15.38;10.30;;;460.80;2380.80;;;;;;5052205;28;20048;-82
2023/05/31 04:43:42;;;;;;;13.07;9.88;;;460.80;2380.80;;;;;;5052113;28;20033;-82
2023/05/31 04:46:09;;;;;;;19.15;11.13;;;460.90;2380.80;;;;;;5051930;28;20029;-81
2023/05/31 04:48:36;;;;;;;15.00;11.07;;;460.90;2380.80;;;;;;5051997;28;20075;-81
2023/05/31 04:51:01;;;;;;;19.75;12.05;;;460.90;2380.80;;;;;;5051884;28;20492;-82
2023/05/31 04:53:27;;;;;;;16.20;12.35;;;460.90;2380.80;;;;;;5051665;28;20025;-82
2023/05/31 04:55:53;;;;;;;17.38;12.43;;;460.90;2380.80;;;;;;5055042;28;20025;-82
2023/05/31 04:58:19;;;;;;;20.33;12.05;;;460.90;2380.80;;;;;;5055824;28;20083;-81
2023/05/31 05:00:45;;;;;;;14.88;10.23;;;461.00;2380.80;;;;;;5055276;28;20457;-82
2023/05/31 05:03:12;;;;;;;17.70;13.10;;;461.60;2380.80;;;;;;5055187;28;20056;-81
2023/05/31 05:05:38;;;;;;;24.42;13.95;;;461.10;2380.80;;;;;;5055117;28;20074;-81
2023/05/31 05:08:04;;;;;;;22.15;13.90;;;460.90;2380.80;;;;;;5054864;28;20566;-81
2023/05/31 05:10:29;;;;;;;27.55;15.55;;;460.80;2380.80;;;;;;5055250;28;20025;-83
2023/05/31 05:12:55;;;;;;;37.65;15.27;;;436.10;2355.20;;;;;;5055382;28;20084;-81
2023/05/31 05:15:21;;;;;;;28.65;14.77;;;436.10;2355.20;;;;;;5054815;28;20029;-81
2023/05/31 05:17:47;;;;;;;31.13;15.90;;;460.80;2380.80;;;;;;5055191;28;20106;-83
2023/05/31 05:20:13;;;;;;;25.45;15.93;;;436.10;2355.20;;;;;;5055097;28;20377;-82
2023/05/31 05:22:41;;;;;;;22.00;14.90;;;460.90;2380.80;;;;;;5054691;28;20021;-82
2023/05/31 05:25:07;;;;;;;23.50;15.02;;;461.10;2150.40;;;;;;5056370;28;20453;-83
2023/05/31 05:27:33;;;;;;;27.27;14.55;;;461.20;2380.80;;;;;;5055234;28;20033;-81
2023/05/31 05:29:59;;;;;;;19.50;14.27;;;461.30;2380.80;;;;;;5056476;28;20031;-81
2023/05/31 05:32:25;;;;;;;23.17;13.13;;;461.40;2380.80;;;;;;5056547;28;20039;-81
2023/05/31 05:34:50;;;;;;;23.08;13.38;;;461.40;2252.80;;;;;;5055937;28;20281;-81
2023/05/31 05:37:16;;;;;;;23.70;12.57;;;461.40;2380.80;;;;;;5054630;28;20457;-82
2023/05/31 05:39:42;;;;;;;18.60;11.63;;;461.40;2329.60;;;;;;5054554;28;20029;-81
2023/05/31 05:42:08;;;;;;;17.40;10.77;;;461.30;2380.80;;;;;;5055169;28;20055;-81
2023/05/31 05:44:34;;;;;;;13.93;10.02;;;461.30;2124.80;;;;;;5054312;28;20504;-82
2023/05/31 05:46:59;;;;;;;14.95;10.10;;;461.40;2380.80;;;;;;5054442;28;20036;-82
2023/05/31 05:49:25;;;;;;;15.82;9.30;;;461.30;2380.80;;;;;;5054118;28;20186;-82
2023/05/31 05:51:51;;;;;;;13.70;8.63;;;461.40;2380.80;;;;;;5054341;28;20029;-82
2023/05/31 05:54:17;;;;;;;16.15;8.95;;;461.50;2380.80;;;;;;5054343;28;20059;-82
2023/05/31 05:56:42;;;;;;;15.57;8.65;;;461.60;2380.80;;;;;;5054189;28;20032;-83
2023/05/31 05:59:08;;;;;;;11.20;8.30;;;461.70;2380.80;;;;;;5054873;28;20078;-83
2023/05/31 06:01:35;;;;;;;17.08;10.00;;;486.40;2380.80;;;;;;5055456;28;20071;-83
2023/05/31 06:04:01;;;;;;;12.48;7.50;;;486.40;2380.80;;;;;;5050741;28;20727;-83
2023/05/31 06:06:27;;;;;;;13.00;8.75;;;486.40;2380.80;;;;;;5051337;28;20045;-83
2023/05/31 06:08:53;;;;;;;12.57;6.38;;;461.70;2380.80;;;;;;5054957;28;20473;-83
2023/05/31 06:11:18;;;;;;;11.23;6.20;;;486.40;2380.80;;;;;;5054537;28;20385;-82
2023/05/31 06:13:44;;;;;;;13.65;6.07;;;486.50;2380.80;;;;;;5054810;28;20052;-82
2023/05/31 06:16:10;;;;;;;7.63;5.50;;;486.50;2380.80;;;;;;5054414;28;20025;-82
2023/05/31 06:18:36;;;;;;;9.63;5.75;;;486.50;2380.80;;;;;;5037751;28;20040;-83
2023/05/31 06:21:02;;;;;;;10.55;6.70;;;486.50;2380.80;;;;;;5053969;28;20377;-82
2023/05/31 06:23:29;;;;;;;8.13;6.43;;;486.50;2380.80;;;;;;5053320;28;20380;-83
2023/05/31 06:25:55;;;;;;;8.25;5.72;;;486.40;2380.80;;;;;;5054293;28;20028;-83
2023/05/31 06:28:21;;;;;;;9.90;5.97;;;486.40;2380.80;;;;;;5054125;28;20028;-83
2023/05/31 06:30:46;;;;;;;10.27;6.20;;;486.40;2380.80;;;;;;5053698;28;20025;-82
2023/05/31 06:33:13;;;;;;;9.88;5.85;;;486.50;2380.80;;;;;;5053745;28;20028;-82
2023/05/31 06:35:40;;;;;;;8.02;5.13;;;486.60;2380.80;;;;;;5055127;28;20465;-83
2023/05/31 06:38:07;;;;;;;7.68;5.35;;;486.50;2380.80;;;;;;5053541;28;20033;-82
2023/05/31 06:40:33;;;;;;;7.25;4.80;;;486.50;2380.80;;;;;;5054750;28;20530;-83
2023/05/31 06:42:58;;;;;;;6.22;4.50;;;486.70;2380.80;;;;;;5055036;28;20103;-83
2023/05/31 06:45:24;;;;;;;6.72;4.55;;;486.70;2380.80;;;;;;5053410;28;20396;-83
2023/05/31 06:47:50;;;;;;;8.85;4.45;;;486.70;2380.80;;;;;;5054483;28;20108;-83
2023/05/31 06:50:16;;;;;;;6.57;4.40;;;486.50;2380.80;;;;;;5054760;28;20445;-82
2023/05/31 06:52:42;;;;;;;7.20;4.65;;;486.50;2380.80;;;;;;5053064;28;20021;-83
2023/05/31 06:55:08;;;;;;;10.07;4.68;;;486.60;2380.80;;;;;;5053872;28;20061;-82
2023/05/31 06:57:34;;;;;;;7.57;4.60;;;486.50;2380.80;;;;;;5054762;28;20021;-82
2023/05/31 06:59:59;;;;;;;10.15;4.95;;;486.50;2380.80;;;;;;5053221;28;20040;-82
2023/05/31 07:02:27;;;;;;;6.85;4.68;;;486.50;2380.80;;;;;;5053292;28;20036;-82
2023/05/31 07:04:53;;;;;;;10.07;5.30;;;486.50;2380.80;;;;;;5054230;28;20045;-83
2023/05/31 07:07:18;;;;;;;9.50;4.85;;;486.50;2380.80;;;;;;5052836;28;20029;-83
2023/05/31 07:09:45;;;;;;;8.43;5.13;;;486.60;2380.80;;;;;;5054233;28;20025;-83
2023/05/31 07:12:11;;;;;;;10.68;7.15;;;486.60;2380.80;;;;;;5054751;28;20599;-82
2023/05/31 07:14:36;;;;;;;12.10;8.20;;;486.70;2380.80;;;;;;5052724;28;20025;-82
2023/05/31 07:17:02;;;;;;;12.82;8.40;;;486.70;2380.80;;;;;;5052713;28;20455;-82
2023/05/31 07:19:31;;;;;;;17.08;8.45;;;486.70;2380.80;;;;;;5053960;28;20472;-83
2023/05/31 07:21:56;;;;;;;12.20;6.40;;;486.70;2380.80;;;;;;5052363;28;20025;-82
2023/05/31 07:24:22;;;;;;;11.25;7.88;;;486.50;2380.80;;;;;;5052699;28;20029;-83
2023/05/31 07:26:48;;;;;;;13.10;8.18;;;461.70;2380.80;;;;;;5052439;28;20457;-83
2023/05/31 07:29:14;;;;;;;12.80;8.57;;;461.70;2380.80;;;;;;5052475;28;20033;-82
2023/05/31 07:31:40;;;;;;;12.18;8.65;;;461.60;2380.80;;;;;;5052628;28;20055;-84
2023/05/31 07:34:06;;;;;;;17.70;7.72;;;461.50;2380.80;;;;;;5053597;28;20031;-82
2023/05/31 07:36:32;;;;;;;20.90;9.55;;;461.50;2380.80;;;;;;5052440;28;20064;-83
2023/05/31 07:38:59;;;;;;;17.58;8.80;;;461.50;2380.80;;;;;;5052518;28;20420;-82
2023/05/31 07:41:25;;;;;;;12.95;8.75;;;461.60;2380.80;;;;;;5053632;28;20413;-82
2023/05/31 07:43:52;;;;;;;10.32;7.35;;;461.60;2380.80;;;;;;5053800;28;20060;-82
2023/05/31 07:46:18;;;;;;;11.35;7.18;;;461.70;2380.80;;;;;;5052419;28;20028;-84
2023/05/31 07:48:43;;;;;;;8.65;7.10;;;486.40;2380.80;;;;;;5051955;28;20025;-82
2023/05/31 07:51:09;;;;;;;11.73;8.40;;;486.50;2380.80;;;;;;5053577;28;20029;-82
2023/05/31 07:53:35;;;;;;;11.13;8.95;;;486.50;2380.80;;;;;;5052342;28;20021;-82
2023/05/31 07:56:01;;;;;;;12.38;8.68;;;486.50;2380.80;;;;;;5052072;28;20055;-82
2023/05/31 07:58:27;;;;;;;14.65;10.40;;;486.50;2380.80;;;;;;5053443;28;20060;-84
2023/05/31 08:00:54;;;;;;;16.70;11.75;;;486.50;2380.80;;;;;;5052669;28;20025;-82
2023/05/31 08:03:20;;;;;;;16.27;12.35;;;486.50;2380.80;;;;;;5052216;28;20465;-84
2023/05/31 08:05:48;;;;;;;12.90;9.63;;;486.50;2380.80;;;;;;5052072;28;20052;-84
2023/05/31 08:08:13;;;;;;;10.30;8.77;;;486.50;2380.80;;;;;;5052357;28;20132;-84
2023/05/31 08:10:39;;;;;;;10.85;9.27;;;486.50;2380.80;;;;;;5052076;28;20057;-83
2023/05/31 08:13:05;;;;;;;12.55;11.02;;;486.40;2380.80;;;;;;5052454;28;20032;-83
2023/05/31 08:15:31;;;;;;;10.60;9.05;;;486.40;2304.00;;;;;;5053630;28;20101;-83
2023/05/31 08:17:58;;;;;;;13.43;9.45;;;486.40;2380.80;;;;;;5052511;28;20095;-84
2023/05/31 08:20:26;;;;;;;16.23;11.32;;;486.40;2278.40;;;;;;5053302;28;20075;-83
2023/05/31 08:22:53;;;;;;;13.88;9.90;;;461.70;2073.60;;;;;;5052479;28;20029;-85
2023/05/31 08:25:19;;;;;;;13.85;9.52;;;486.40;2380.80;;;;;;5052025;28;20033;-84
2023/05/31 08:27:45;;;;;;;14.25;10.15;;;486.40;2380.80;;;;;;5053643;28;20083;-84
2023/05/31 08:30:12;;;;;;;22.73;15.75;;;486.40;2227.20;;;;;;5054222;28;20454;-87
2023/05/31 08:32:38;;;;;;;17.98;12.65;;;486.40;2176.00;;;;;;5056235;28;20063;-86
2023/05/31 08:35:06;;;;;;;20.15;13.00;;;486.40;1996.80;;;;;;5060149;28;20031;-84
2023/05/31 08:37:33;;;;;;;20.63;13.73;;;486.40;2380.80;;;;;;5080667;28;20025;-86
2023/05/31 08:39:58;;;;;;;16.90;13.48;;;486.40;2380.80;;;;;;5067374;28;20029;-85
2023/05/31 08:42:42;;;;;;;15.70;12.35;;;461.70;2380.80;;;;;;5065250;28;20088;-84
2023/05/31 08:45:11;;;;;;;18.48;12.57;;;486.40;2380.80;;;;;;5060104;28;20033;-87
2023/05/31 08:47:43;;;;;;;23.85;14.20;;;486.40;2380.80;;;;;;5057014;28;20021;-85
2023/05/31 08:50:10;;;;;;;18.10;13.00;;;486.40;2380.80;;;;;;5056297;28;20145;-85
2023/05/31 08:52:37;;;;;;;14.52;12.13;;;486.40;2380.80;;;;;;5055355;28;20032;-85
2023/05/31 08:55:04;;;;;;;17.33;13.10;;;461.70;2304.00;;;;;;5055870;28;20040;-84
2023/05/31 08:57:31;;;;;;;15.32;12.30;;;461.60;2150.40;;;;;;5056519;28;20029;-82
2023/05/31 08:59:58;;;;;;;15.05;11.77;;;486.40;2227.20;;;;;;5055566;28;20025;-86
2023/05/31 09:02:25;;;;;;;12.80;10.68;;;486.40;2380.80;;;;;;5055399;28;20029;-85
2023/05/31 09:04:51;;;;;;;12.70;10.82;;;486.40;2380.80;;;;;;5055174;28;20405;-85
2023/05/31 09:07:17;;;;;;;13.75;10.10;;;486.50;2380.80;;;;;;5055623;28;20033;-85
2023/05/31 09:09:43;;;;;;;13.38;10.73;;;486.50;2380.80;;;;;;5055314;28;20506;-84
2023/05/31 09:12:09;;;;;;;15.52;11.20;;;486.60;2380.80;;;;;;5055182;28;20064;-84
2023/05/31 09:14:35;;;;;;;16.60;12.10;;;486.70;2380.80;;;;;;5056803;28;20372;-87
2023/05/31 09:17:01;;;;;;;15.00;11.77;;;486.70;2380.80;;;;;;5057188;28;20025;-87
2023/05/31 09:19:27;;;;;;;18.67;12.10;;;486.90;2380.80;;;;;;5055755;28;20113;-84
2023/05/31 09:21:53;;;;;;;13.25;11.52;;;486.90;2380.80;;;;;;5055278;28;20116;-85
2023/05/31 09:24:19;;;;;;;12.73;10.93;;;487.00;2380.80;;;;;;5056577;28;20454;-84
2023/05/31 09:26:52;;;;;;;12.32;10.73;;;487.10;2380.80;;;;;;5055184;28;20031;-84
2023/05/31 09:29:20;;;;;;;11.27;9.40;;;487.30;2380.80;;;;;;5056365;28;20025;-85
2023/05/31 09:31:46;;;;;;;9.88;7.75;;;487.30;2380.80;;;;;;5056319;28;20036;-84
2023/05/31 09:34:27;;;;;;;7.80;6.70;;;512.00;2380.80;;;;;;5054930;28;20116;-84
2023/05/31 09:36:59;;;;;;;8.35;6.57;;;512.20;2380.80;;;;;;5054963;28;20025;-85
2023/05/31 09:39:26;;;;;;;8.75;6.53;;;512.40;2380.80;;;;;;5054876;28;20037;-84
2023/05/31 09:41:52;;;;;;;8.00;6.35;;;512.40;2380.80;;;;;;5053503;28;20380;-83
2023/05/31 09:44:18;;;;;;;7.47;6.03;;;512.40;2380.80;;;;;;5055195;28;20025;-83
2023/05/31 09:46:47;;;;;;;8.25;6.13;;;512.60;2380.80;;;;;;5056232;28;20021;-83
2023/05/31 09:49:13;;;;;;;7.57;5.82;;;512.50;2380.80;;;;;;5054711;28;20033;-83
2023/05/31 09:51:39;;;;;;;9.48;5.40;;;512.50;2380.80;;;;;;5054890;28;20029;-84
2023/05/31 09:54:14;;;;;;;8.93;6.85;;;512.50;2380.80;;;;;;5055853;28;20075;-87
2023/05/31 09:56:41;;;;;;;10.48;6.43;;;512.50;2380.80;;;;;;5055126;28;20116;-86
2023/05/31 09:59:07;;;;;;;8.63;5.57;;;512.50;2380.80;;;;;;5055210;28;20151;-84
2023/05/31 10:01:34;;;;;;;7.72;5.50;;;512.50;2380.80;;;;;;5054260;28;20028;-85
2023/05/31 10:04:05;;;;;;;5.82;4.60;;;512.40;2380.80;;;;;;5052515;28;20067;-85
2023/05/31 10:06:36;;;;;;;6.63;5.00;;;512.40;2380.80;;;;;;5050884;28;20111;-85
2023/05/31 10:09:03;;;;;;;7.88;5.28;;;512.40;2380.80;;;;;;5052003;28;20405;-85
2023/05/31 10:11:34;;;;;;;6.70;4.00;;;512.40;2380.80;;;;;;5052323;28;20408;-84
2023/05/31 10:14:03;;;;;;;6.83;4.30;;;512.40;2380.80;;;;;;5051585;28;20378;-84
2023/05/31 10:16:36;;;;;;;7.82;4.47;;;512.50;2380.80;;;;;;5035643;28;20496;-83
2023/05/31 10:19:07;;;;;;;6.20;4.15;;;512.60;2380.80;;;;;;5051238;28;20029;-85
2023/05/31 10:21:36;;;;;;;6.57;4.35;;;512.80;2380.80;;;;;;5051346;28;20037;-85
2023/05/31 10:24:06;;;;;;;5.60;3.90;;;512.90;2380.80;;;;;;5051095;28;20484;-85
2023/05/31 10:26:52;;;;;;;5.40;3.88;;;537.60;2406.40;;;;;;5051067;28;20180;-85
2023/05/31 10:29:23;;;;;;;7.13;3.97;;;537.60;2406.40;;;;;;5035366;28;20030;-84
2023/05/31 10:31:51;;;;;;;5.63;3.03;;;537.80;2406.40;;;;;;5050924;28;20108;-82
2023/05/31 10:34:22;;;;;;;4.43;2.92;;;538.00;2406.40;;;;;;5050787;28;20026;-85
2023/05/31 10:36:53;;;;;;;6.70;3.30;;;538.00;2406.40;;;;;;5033998;28;20057;-85
2023/05/31 10:39:31;;;;;;;5.93;3.60;;;538.00;2406.40;;;;;;5050681;28;20107;-84
2023/05/31 10:42:32;;;;;;;5.78;4.40;;;538.00;2406.40;;;;;;5050789;28;20381;-86
2023/05/31 10:45:15;;;;;;;6.45;4.50;;;538.30;2406.40;;;;;;5050275;28;20028;-82
2023/05/31 10:47:57;;;;;;;4.88;3.33;;;563.20;2432.00;;;;;;5048556;28;20136;-82
2023/05/31 10:50:23;;;;;;;10.68;3.78;;;563.30;2432.00;;;;;;5050068;28;20041;-82
2023/05/31 10:52:52;;;;;;;8.15;4.75;;;563.60;2432.00;;;;;;5034758;28;20378;-83
2023/05/31 10:55:24;;;;;;;4.78;3.50;;;563.70;2432.00;;;;;;5034759;28;20036;-83
2023/05/31 10:57:51;;;;;;;;;;;564.00;2432.00;;;;;;5050904;28;20045;-83
2023/05/31 11:00:20;;;;;;;6.93;3.63;;;564.10;2432.00;;;;;;5038569;28;20362;-83
2023/05/31 11:02:49;;;;;;;5.43;3.35;;;588.80;2432.00;;;;;;5053844;28;20025;-83
2023/05/31 11:05:24;;;;;;;4.90;3.38;;;588.80;2432.00;;;;;;5054649;28;20055;-82
2023/05/31 11:07:51;;;;;;;7.65;3.58;;;564.10;2432.00;;;;;;5053483;28;20025;-82
2023/05/31 11:10:32;;;;;;;6.65;3.35;;;588.80;2432.00;;;;;;5054545;28;20029;-85
2023/05/31 11:13:05;;;;;;;6.95;3.88;;;588.90;2432.00;;;;;;5053342;28;20491;-83
2023/05/31 11:15:42;;;;;;;6.63;3.47;;;589.10;2432.00;;;;;;5053034;28;20151;-84
2023/05/31 11:18:09;;;;;;;6.28;3.67;;;589.20;2432.00;;;;;;5052908;28;20029;-84
2023/05/31 11:20:36;;;;;;;7.50;3.53;;;589.30;2432.00;;;;;;5054422;28;20078;-82
2023/05/31 11:23:34;;;;;;;6.63;3.22;;;589.50;2432.00;;;;;;5053247;28;20040;-83
2023/05/31 11:26:18;;;;;;;9.27;3.28;;;589.70;2432.00;;;;;;5015405;28;20034;-84
2023/05/31 11:29:11;;;;;;;6.97;3.15;;;614.50;2432.00;;;;;;5032767;28;20556;-85
2023/05/31 11:31:55;;;;;;;9.25;3.08;;;614.60;2432.00;;;;;;5011899;28;20049;-84
2023/05/31 11:34:31;;;;;;;5.35;3.03;;;614.80;2432.00;;;;;;5015574;28;20053;-82
2023/05/31 11:36:59;;;;;;;4.97;3.00;;;615.00;2432.00;;;;;;5015020;28;20030;-86
2023/05/31 11:39:29;;;;;;;7.95;3.38;;;640.00;2432.00;;;;;;5015020;28;20057;-85
2023/05/31 11:41:55;;;;;;;6.15;3.42;;;640.40;2432.00;;;;;;5015242;28;20029;-82
2023/05/31 11:44:30;;;;;;;10.05;2.67;;;640.40;2432.00;;;;;;5032054;28;20506;-84
2023/05/31 11:47:06;;;;;;;5.25;2.45;;;640.20;2432.00;;;;;;5031631;28;20086;-84
2023/05/31 11:49:35;;;;;;;7.55;3.90;;;640.00;2432.00;;;;;;5015077;28;20041;-85
2023/05/31 11:52:03;;;;;;;6.43;3.10;;;615.10;2432.00;;;;;;5015477;28;20025;-87
2023/05/31 11:54:32;;;;;;;7.90;3.13;;;615.10;2432.00;;;;;;5015341;28;20025;-86
2023/05/31 11:57:03;;;;;;;4.38;2.75;;;615.00;2432.00;;;;;;5015023;28;20029;-85
2023/05/31 11:59:33;;;;;;;6.20;3.50;;;615.10;2432.00;;;;;;5029493;28;20056;-87
2023/05/31 12:02:01;;;;;;;6.82;2.95;;;640.10;2432.00;;;;;;5042424;28;20482;-86
2023/05/31 12:04:34;;;;;;;4.45;2.75;;;640.40;2432.00;;;;;;5054444;28;20021;-85
2023/05/31 12:07:00;;;;;;;7.20;2.90;;;640.50;2432.00;;;;;;5058938;28;20032;-86
2023/05/31 12:09:26;;;;;;;6.78;3.10;;;640.90;2432.00;;;;;;5056888;28;20024;-86
2023/05/31 12:11:54;;;;;;;5.50;2.72;;;665.70;2432.00;;;;;;5056876;28;20059;-86
2023/05/31 12:14:20;;;;;;;4.95;2.95;;;665.90;2432.00;;;;;;5056549;28;20492;-86